createdAt,value
2023-02-06T00:01:10.646Z,-2.17
2023-02-06T00:05:22.207Z,-2.16
2023-02-06T00:09:29.587Z,-2.12
2023-02-06T00:13:37.805Z,-2.05
2023-02-06T00:17:45.525Z,-1.98
2023-02-06T00:21:53.235Z,-1.92
2023-02-06T00:26:02.027Z,-1.92
2023-02-06T00:30:11.196Z,-1.98
2023-02-06T00:34:18.947Z,-2.05
2023-02-06T00:38:26.306Z,-2.14
2023-02-06T00:42:33.635Z,-2.22
2023-02-06T00:46:42.204Z,-2.30
2023-02-06T00:50:51.237Z,-2.35
2023-02-06T00:54:58.926Z,-2.37
2023-02-06T00:59:06.618Z,-2.37
2023-02-06T01:03:14.158Z,-2.36
2023-02-06T01:07:21.501Z,-2.39
2023-02-06T01:11:29.103Z,-2.41
2023-02-06T01:15:36.811Z,-2.47
2023-02-06T01:19:44.710Z,-2.54
2023-02-06T01:23:53.565Z,-2.62
2023-02-06T01:28:02.362Z,-2.71
2023-02-06T01:32:09.873Z,-2.79
2023-02-06T01:36:18.569Z,-2.84
2023-02-06T01:40:26.598Z,-2.88
2023-02-06T01:44:36.680Z,-2.95
2023-02-06T01:48:46.205Z,-2.94
2023-02-06T01:52:54.679Z,-2.90
2023-02-06T01:57:04.872Z,-2.88
2023-02-06T02:01:12.450Z,-2.88
2023-02-06T02:05:21.106Z,-2.88
2023-02-06T02:09:29.383Z,-2.92
2023-02-06T02:13:38.466Z,-2.97
2023-02-06T02:17:53.827Z,-3.03
2023-02-06T02:22:19.641Z,-3.10
2023-02-06T02:26:58.257Z,-3.13
2023-02-06T02:31:24.414Z,-3.13
2023-02-06T02:35:37.773Z,-3.12
2023-02-06T02:39:48.801Z,-3.09
2023-02-06T02:44:00.122Z,-3.04
2023-02-06T02:48:10.464Z,-3.02
2023-02-06T02:52:19.786Z,-3.03
2023-02-06T02:56:30.106Z,-3.04
2023-02-06T03:00:41.196Z,-3.05
2023-02-06T03:04:51.456Z,-3.07
2023-02-06T03:09:05.006Z,-3.11
2023-02-06T03:13:17.690Z,-3.14
2023-02-06T03:17:32.779Z,-3.14
2023-02-06T03:21:42.600Z,-3.09
2023-02-06T03:25:52.738Z,-3.06
2023-02-06T03:30:02.162Z,-3.05
2023-02-06T03:34:13.697Z,-3.08
2023-02-06T03:38:21.462Z,-3.10
2023-02-06T03:42:30.320Z,-3.16
2023-02-06T03:46:39.774Z,-3.24
2023-02-06T03:50:50.358Z,-3.26
2023-02-06T03:55:02.596Z,-3.29
2023-02-06T03:59:11.123Z,-3.30
2023-02-06T04:03:20.114Z,-3.28
2023-02-06T04:07:29.060Z,-3.20
2023-02-06T04:11:36.989Z,-3.13
2023-02-06T04:15:44.626Z,-3.13
2023-02-06T04:19:52.164Z,-3.15
2023-02-06T04:24:00.869Z,-3.18
2023-02-06T04:28:09.215Z,-3.20
2023-02-06T04:32:17.131Z,-3.24
2023-02-06T04:36:24.733Z,-3.28
2023-02-06T04:40:32.247Z,-3.31
2023-02-06T04:44:40.647Z,-3.29
2023-02-06T04:48:48.343Z,-3.26
2023-02-06T04:52:55.935Z,-3.23
2023-02-06T04:57:05.077Z,-3.16
2023-02-06T05:01:12.743Z,-3.14
2023-02-06T05:05:20.530Z,-3.16
2023-02-06T05:09:28.570Z,-3.19
2023-02-06T05:13:36.967Z,-3.23
2023-02-06T05:17:45.822Z,-3.29
2023-02-06T05:21:57.103Z,-3.34
2023-02-06T05:26:06.128Z,-3.35
2023-02-06T05:30:15.770Z,-3.34
2023-02-06T05:34:23.581Z,-3.31
2023-02-06T05:38:31.388Z,-3.28
2023-02-06T05:42:39.010Z,-3.24
2023-02-06T05:46:48.620Z,-3.22
2023-02-06T05:50:56.567Z,-3.23
2023-02-06T05:55:04.329Z,-3.25
2023-02-06T05:59:12.134Z,-3.26
2023-02-06T06:03:19.496Z,-3.30
2023-02-06T06:07:26.799Z,-3.33
2023-02-06T06:11:34.697Z,-3.37
2023-02-06T06:15:42.447Z,-3.37
2023-02-06T06:19:50.434Z,-3.33
2023-02-06T06:23:58.444Z,-3.27
2023-02-06T06:28:06.714Z,-3.22
2023-02-06T06:32:14.085Z,-3.17
2023-02-06T06:36:21.556Z,-3.15
2023-02-06T06:40:29.783Z,-3.19
2023-02-06T06:44:37.492Z,-3.20
2023-02-06T06:48:45.727Z,-3.18
2023-02-06T06:52:53.526Z,-3.16
2023-02-06T06:57:01.259Z,-3.12
2023-02-06T07:01:10.097Z,-3.07
2023-02-06T07:05:17.913Z,-3.00
2023-02-06T07:09:25.824Z,-2.91
2023-02-06T07:13:33.423Z,-2.82
2023-02-06T07:17:41.045Z,-2.74
2023-02-06T07:21:59.222Z,-2.68
2023-02-06T07:26:08.331Z,-2.64
2023-02-06T07:30:24.203Z,-2.63
2023-02-06T07:34:39.161Z,-2.62
2023-02-06T07:38:48.440Z,-2.59
2023-02-06T07:43:00.402Z,-2.53
2023-02-06T07:47:15.539Z,-2.47
2023-02-06T07:51:27.997Z,-2.36
2023-02-06T07:55:38.557Z,-2.26
2023-02-06T07:59:46.403Z,-2.15
2023-02-06T08:04:04.424Z,-2.06
2023-02-06T08:08:18.895Z,-2.02
2023-02-06T08:12:27.039Z,-1.97
2023-02-06T08:16:34.662Z,-1.95
2023-02-06T08:20:45.319Z,-1.91
2023-02-06T08:24:55.524Z,-1.89
2023-02-06T08:29:14.565Z,-1.85
2023-02-06T08:33:23.527Z,-1.78
2023-02-06T08:37:34.961Z,-1.67
2023-02-06T08:41:46.451Z,-1.52
2023-02-06T08:45:56.224Z,-1.34
2023-02-06T08:50:07.697Z,-1.18
2023-02-06T08:54:17.609Z,-0.99
2023-02-06T08:58:30.170Z,-0.84
2023-02-06T09:02:40.018Z,-0.72
2023-02-06T09:06:49.306Z,-0.63
2023-02-06T09:10:57.856Z,-0.56
2023-02-06T09:15:07.017Z,-0.49
2023-02-06T09:19:16.504Z,-0.45
2023-02-06T09:23:24.463Z,-0.42
2023-02-06T09:27:32.266Z,-0.38
2023-02-06T09:31:41.448Z,-0.36
2023-02-06T09:35:49.447Z,-0.40
2023-02-06T09:39:56.841Z,-0.44
2023-02-06T09:44:13.018Z,-0.48
2023-02-06T09:48:24.213Z,-0.49
2023-02-06T09:52:53.420Z,-0.46
2023-02-06T09:57:06.018Z,-0.39
2023-02-06T10:01:20.656Z,-0.34
2023-02-06T10:05:35.014Z,-0.32
2023-02-06T10:09:45.466Z,-0.27
2023-02-06T10:13:55.776Z,-0.18
2023-02-06T10:18:09.331Z,-0.10
2023-02-06T10:22:21.461Z,-0.05
2023-02-06T10:26:31.013Z,-0.02
2023-02-06T10:31:01.804Z,-0.02
2023-02-06T10:35:33.502Z,-0.06
2023-02-06T10:39:53.013Z,-0.06
2023-02-06T10:44:04.110Z,-0.04
2023-02-06T10:48:18.328Z,-0.01
2023-02-06T10:52:28.582Z,0.02
2023-02-06T10:56:41.033Z,0.05
2023-02-06T11:00:49.499Z,0.08
2023-02-06T11:05:05.429Z,0.08
2023-02-06T11:09:13.453Z,0.14
2023-02-06T11:13:28.658Z,0.21
2023-02-06T11:17:39.339Z,0.27
2023-02-06T11:21:56.524Z,0.32
2023-02-06T11:26:14.390Z,0.33
2023-02-06T11:30:38.319Z,0.33
2023-02-06T11:34:54.906Z,0.34
2023-02-06T11:39:06.218Z,0.37
2023-02-06T11:43:22.821Z,0.38
2023-02-06T11:47:35.049Z,0.37
2023-02-06T11:51:52.977Z,0.39
2023-02-06T11:56:06.527Z,0.38
2023-02-06T12:00:24.856Z,0.37
2023-02-06T12:04:35.683Z,0.35
2023-02-06T12:08:52.576Z,0.30
2023-02-06T12:13:06.485Z,0.23
2023-02-06T12:17:21.972Z,0.16
2023-02-06T12:21:36.566Z,0.17
2023-02-06T12:25:44.984Z,0.13
2023-02-06T12:30:03.319Z,0.13
2023-02-06T12:34:18.585Z,0.12
2023-02-06T12:38:32.066Z,0.07
2023-02-06T12:42:43.240Z,0.05
2023-02-06T12:46:56.739Z,0.05
2023-02-06T12:51:11.570Z,0.02
2023-02-06T12:55:24.260Z,-0.01
2023-02-06T12:59:58.167Z,-0.04
2023-02-06T13:04:16.049Z,0.01
2023-02-06T13:08:26.888Z,0.05
2023-02-06T13:12:35.675Z,0.07
2023-02-06T13:16:51.716Z,0.07
2023-02-06T13:21:19.463Z,0.08
2023-02-06T13:25:55.802Z,0.11
2023-02-06T13:30:42.707Z,0.15
2023-02-06T13:34:57.699Z,0.19
2023-02-06T13:39:24.398Z,0.16
2023-02-06T13:43:32.459Z,0.13
2023-02-06T13:48:07.255Z,0.09
2023-02-06T13:52:19.979Z,0.05
2023-02-06T13:56:45.724Z,0.02
2023-02-06T14:00:54.875Z,0.01
2023-02-06T14:05:03.641Z,0.00
2023-02-06T14:09:30.792Z,0.01
2023-02-06T14:13:59.261Z,-0.01
2023-02-06T14:18:29.532Z,-0.03
2023-02-06T14:22:43.734Z,-0.07
2023-02-06T14:27:01.138Z,-0.08
2023-02-06T14:31:16.557Z,-0.12
2023-02-06T14:35:47.510Z,-0.15
2023-02-06T14:39:56.091Z,-0.20
2023-02-06T14:44:03.857Z,-0.22
2023-02-06T14:48:22.276Z,-0.23
2023-02-06T14:52:31.234Z,-0.27
2023-02-06T14:56:40.625Z,-0.31
2023-02-06T15:00:49.116Z,-0.32
2023-02-06T15:04:56.957Z,-0.29
2023-02-06T15:09:06.477Z,-0.28
2023-02-06T15:13:24.277Z,-0.26
2023-02-06T15:17:34.273Z,-0.20
2023-02-06T15:21:44.361Z,-0.16
2023-02-06T15:26:00.953Z,-0.16
2023-02-06T15:30:19.692Z,-0.18
2023-02-06T15:34:28.554Z,-0.21
2023-02-06T15:38:37.484Z,-0.25
2023-02-06T15:42:45.965Z,-0.27
2023-02-06T15:46:57.544Z,-0.30
2023-02-06T15:51:17.971Z,-0.33
2023-02-06T15:55:28.261Z,-0.30
2023-02-06T15:59:38.289Z,-0.19
2023-02-06T16:03:46.505Z,-0.07
2023-02-06T16:07:59.641Z,-0.02
2023-02-06T16:12:07.866Z,0.03
2023-02-06T16:16:24.761Z,0.12
2023-02-06T16:20:40.314Z,0.20
2023-02-06T16:24:50.464Z,0.26
2023-02-06T16:29:02.831Z,0.26
2023-02-06T16:33:21.749Z,0.26
2023-02-06T16:37:32.612Z,0.26
2023-02-06T16:41:42.874Z,0.25
2023-02-06T16:45:50.951Z,0.24
2023-02-06T16:49:59.302Z,0.21
2023-02-06T16:54:09.627Z,0.17
2023-02-06T16:58:20.475Z,0.14
2023-02-06T17:02:29.898Z,0.10
2023-02-06T17:06:39.071Z,0.04
2023-02-06T17:10:47.349Z,-0.05
2023-02-06T17:14:56.294Z,-0.14
2023-02-06T17:19:04.137Z,-0.23
2023-02-06T17:23:22.402Z,-0.31
2023-02-06T17:27:30.525Z,-0.41
2023-02-06T17:31:38.816Z,-0.50
2023-02-06T17:35:46.305Z,-0.58
2023-02-06T17:39:55.756Z,-0.67
2023-02-06T17:44:03.888Z,-0.76
2023-02-06T17:48:12.111Z,-0.83
2023-02-06T17:52:21.940Z,-0.88
2023-02-06T17:56:30.115Z,-0.92
2023-02-06T18:00:38.874Z,-0.97
2023-02-06T18:04:48.907Z,-1.06
2023-02-06T18:08:56.255Z,-1.12
2023-02-06T18:13:04.109Z,-1.21
2023-02-06T18:17:13.213Z,-1.29
2023-02-06T18:21:25.278Z,-1.40
2023-02-06T18:25:33.168Z,-1.51
2023-02-06T18:29:49.684Z,-1.63
2023-02-06T18:33:58.936Z,-1.78
2023-02-06T18:38:10.083Z,-1.86
2023-02-06T18:42:35.596Z,-1.89
2023-02-06T18:46:44.084Z,-1.92
2023-02-06T18:50:52.423Z,-1.93
2023-02-06T18:55:00.253Z,-1.95
2023-02-06T18:59:08.966Z,-2.04
2023-02-06T19:03:17.467Z,-2.17
2023-02-06T19:07:25.203Z,-2.23
2023-02-06T19:11:33.126Z,-2.34
2023-02-06T19:15:41.519Z,-2.47
2023-02-06T19:19:49.826Z,-2.57
2023-02-06T19:23:59.674Z,-2.64
2023-02-06T19:28:07.944Z,-2.73
2023-02-06T19:32:17.298Z,-2.78
2023-02-06T19:36:26.486Z,-2.77
2023-02-06T19:40:35.800Z,-2.81
2023-02-06T19:44:45.092Z,-2.85
2023-02-06T19:48:54.177Z,-2.86
2023-02-06T19:53:02.309Z,-2.86
2023-02-06T19:57:10.261Z,-2.87
2023-02-06T20:01:19.595Z,-2.87
2023-02-06T20:05:28.181Z,-2.91
2023-02-06T20:09:36.736Z,-3.00
2023-02-06T20:13:44.592Z,-3.10
2023-02-06T20:17:53.901Z,-3.21
2023-02-06T20:22:04.570Z,-3.29
2023-02-06T20:26:12.725Z,-3.34
2023-02-06T20:30:22.455Z,-3.38
2023-02-06T20:34:31.326Z,-3.43
2023-02-06T20:38:41.679Z,-3.52
2023-02-06T20:42:49.540Z,-3.52
2023-02-06T20:46:57.475Z,-3.51
2023-02-06T20:51:07.690Z,-3.52
2023-02-06T20:55:15.418Z,-3.49
2023-02-06T20:59:24.550Z,-3.49
2023-02-06T21:03:32.243Z,-3.52
2023-02-06T21:07:40.745Z,-3.58
2023-02-06T21:11:50.505Z,-3.71
2023-02-06T21:15:59.773Z,-3.82
2023-02-06T21:20:10.051Z,-3.88
2023-02-06T21:24:19.481Z,-3.96
2023-02-06T21:28:27.864Z,-4.07
2023-02-06T21:32:35.621Z,-4.18
2023-02-06T21:36:44.089Z,-4.24
2023-02-06T21:40:51.976Z,-4.23
2023-02-06T21:44:59.730Z,-4.19
2023-02-06T21:49:09.420Z,-4.20
2023-02-06T21:53:17.392Z,-4.22
2023-02-06T21:57:24.948Z,-4.21
2023-02-06T22:01:35.161Z,-4.25
2023-02-06T22:05:43.315Z,-4.36
2023-02-06T22:09:50.934Z,-4.41
2023-02-06T22:14:01.576Z,-4.49
2023-02-06T22:18:10.754Z,-4.55
2023-02-06T22:22:19.685Z,-4.60
2023-02-06T22:26:28.092Z,-4.64
2023-02-06T22:30:36.839Z,-4.68
2023-02-06T22:34:44.897Z,-4.67
2023-02-06T22:38:56.797Z,-4.68
2023-02-06T22:43:04.872Z,-4.68
2023-02-06T22:47:13.353Z,-4.67
2023-02-06T22:51:21.397Z,-4.64
2023-02-06T22:55:49.922Z,-4.61
2023-02-06T22:59:58.069Z,-4.60
2023-02-06T23:04:09.468Z,-4.60
2023-02-06T23:08:19.493Z,-4.57
2023-02-06T23:12:28.029Z,-4.53
2023-02-06T23:16:38.942Z,-4.54
2023-02-06T23:20:46.970Z,-4.63
2023-02-06T23:24:56.882Z,-4.71
2023-02-06T23:29:06.366Z,-4.74
2023-02-06T23:33:14.550Z,-4.79
2023-02-06T23:37:22.356Z,-4.88
2023-02-06T23:41:30.702Z,-4.90
2023-02-06T23:45:41.445Z,-4.90
2023-02-06T23:49:49.736Z,-4.92
2023-02-06T23:53:57.493Z,-4.94
2023-02-06T23:58:06.406Z,-4.94
